sensor_id;sensor_type;location;lat;lon;timestamp;P1;durP1;ratioP1;P2;durP2;ratioP2
15958;SDS011;8078;47.822;9.402;2024-01-11T00:00:36;58.13;;;22.80;;
15958;SDS011;8078;47.822;9.402;2024-01-11T00:03:02;54.50;;;22.20;;
15958;SDS011;8078;47.822;9.402;2024-01-11T00:05:28;57.37;;;23.23;;
15958;SDS011;8078;47.822;9.402;2024-01-11T00:07:54;55.27;;;22.80;;
15958;SDS011;8078;47.822;9.402;2024-01-11T00:10:20;51.43;;;21.17;;
15958;SDS011;8078;47.822;9.402;2024-01-11T00:12:46;54.30;;;22.37;;
15958;SDS011;8078;47.822;9.402;2024-01-11T00:15:12;52.63;;;22.57;;
15958;SDS011;8078;47.822;9.402;2024-01-11T00:17:38;55.13;;;22.20;;
15958;SDS011;8078;47.822;9.402;2024-01-11T00:20:03;57.87;;;22.37;;
15958;SDS011;8078;47.822;9.402;2024-01-11T00:22:30;57.37;;;23.10;;
15958;SDS011;8078;47.822;9.402;2024-01-11T00:24:56;56.77;;;21.70;;
15958;SDS011;8078;47.822;9.402;2024-01-11T00:27:21;50.80;;;21.33;;
15958;SDS011;8078;47.822;9.402;2024-01-11T00:29:47;54.43;;;22.83;;
15958;SDS011;8078;47.822;9.402;2024-01-11T00:32:13;50.23;;;21.50;;
15958;SDS011;8078;47.822;9.402;2024-01-11T00:34:39;48.77;;;21.53;;
15958;SDS011;8078;47.822;9.402;2024-01-11T00:37:05;53.53;;;21.53;;
15958;SDS011;8078;47.822;9.402;2024-01-11T00:39:31;53.43;;;21.90;;
15958;SDS011;8078;47.822;9.402;2024-01-11T00:41:57;51.93;;;21.37;;
15958;SDS011;8078;47.822;9.402;2024-01-11T00:44:23;55.23;;;21.97;;
15958;SDS011;8078;47.822;9.402;2024-01-11T00:46:49;60.57;;;22.73;;
15958;SDS011;8078;47.822;9.402;2024-01-11T00:49:15;54.97;;;23.00;;
15958;SDS011;8078;47.822;9.402;2024-01-11T00:51:41;55.03;;;22.87;;
15958;SDS011;8078;47.822;9.402;2024-01-11T00:54:07;57.97;;;23.27;;
15958;SDS011;8078;47.822;9.402;2024-01-11T00:56:33;58.23;;;23.30;;
15958;SDS011;8078;47.822;9.402;2024-01-11T00:58:59;55.70;;;22.10;;
15958;SDS011;8078;47.822;9.402;2024-01-11T01:01:25;53.03;;;22.30;;
15958;SDS011;8078;47.822;9.402;2024-01-11T01:03:51;55.40;;;21.80;;
15958;SDS011;8078;47.822;9.402;2024-01-11T01:06:17;51.10;;;21.47;;
15958;SDS011;8078;47.822;9.402;2024-01-11T01:08:43;51.80;;;21.83;;
15958;SDS011;8078;47.822;9.402;2024-01-11T01:11:09;55.60;;;22.37;;
15958;SDS011;8078;47.822;9.402;2024-01-11T01:13:35;52.33;;;21.13;;
15958;SDS011;8078;47.822;9.402;2024-01-11T01:16:01;51.73;;;20.67;;
15958;SDS011;8078;47.822;9.402;2024-01-11T01:18:27;54.77;;;21.37;;
15958;SDS011;8078;47.822;9.402;2024-01-11T01:20:53;52.80;;;22.53;;
15958;SDS011;8078;47.822;9.402;2024-01-11T01:23:19;44.40;;;18.93;;
15958;SDS011;8078;47.822;9.402;2024-01-11T01:25:45;49.03;;;21.07;;
15958;SDS011;8078;47.822;9.402;2024-01-11T01:28:11;56.23;;;21.97;;
15958;SDS011;8078;47.822;9.402;2024-01-11T01:30:37;56.67;;;21.43;;
15958;SDS011;8078;47.822;9.402;2024-01-11T01:33:03;58.33;;;23.03;;
15958;SDS011;8078;47.822;9.402;2024-01-11T01:35:29;54.17;;;22.43;;
15958;SDS011;8078;47.822;9.402;2024-01-11T01:37:55;59.47;;;23.13;;
15958;SDS011;8078;47.822;9.402;2024-01-11T01:40:21;54.87;;;22.47;;
15958;SDS011;8078;47.822;9.402;2024-01-11T01:42:48;57.50;;;22.80;;
15958;SDS011;8078;47.822;9.402;2024-01-11T01:45:14;52.67;;;21.90;;
15958;SDS011;8078;47.822;9.402;2024-01-11T01:47:41;52.10;;;19.93;;
15958;SDS011;8078;47.822;9.402;2024-01-11T01:50:07;49.40;;;19.90;;
15958;SDS011;8078;47.822;9.402;2024-01-11T01:52:35;52.03;;;19.80;;
15958;SDS011;8078;47.822;9.402;2024-01-11T01:55:02;51.40;;;20.23;;
15958;SDS011;8078;47.822;9.402;2024-01-11T01:57:29;52.67;;;19.33;;
15958;SDS011;8078;47.822;9.402;2024-01-11T01:59:57;52.23;;;21.03;;
15958;SDS011;8078;47.822;9.402;2024-01-11T02:02:23;53.53;;;21.73;;
15958;SDS011;8078;47.822;9.402;2024-01-11T02:04:48;51.93;;;20.80;;
15958;SDS011;8078;47.822;9.402;2024-01-11T02:07:14;55.17;;;21.73;;
15958;SDS011;8078;47.822;9.402;2024-01-11T02:09:41;51.43;;;20.13;;
15958;SDS011;8078;47.822;9.402;2024-01-11T02:12:07;51.83;;;21.57;;
15958;SDS011;8078;47.822;9.402;2024-01-11T02:14:37;53.17;;;21.03;;
15958;SDS011;8078;47.822;9.402;2024-01-11T02:17:02;54.20;;;22.27;;
15958;SDS011;8078;47.822;9.402;2024-01-11T02:19:28;62.83;;;23.00;;
15958;SDS011;8078;47.822;9.402;2024-01-11T02:21:54;51.20;;;21.90;;
15958;SDS011;8078;47.822;9.402;2024-01-11T02:24:22;60.43;;;23.43;;
15958;SDS011;8078;47.822;9.402;2024-01-11T02:26:58;55.20;;;21.90;;
15958;SDS011;8078;47.822;9.402;2024-01-11T02:29:25;58.90;;;24.30;;
15958;SDS011;8078;47.822;9.402;2024-01-11T02:31:51;58.07;;;23.87;;
15958;SDS011;8078;47.822;9.402;2024-01-11T02:34:16;65.73;;;23.50;;
15958;SDS011;8078;47.822;9.402;2024-01-11T02:36:43;61.10;;;23.57;;
15958;SDS011;8078;47.822;9.402;2024-01-11T02:39:09;61.67;;;23.10;;
15958;SDS011;8078;47.822;9.402;2024-01-11T02:41:35;64.97;;;22.87;;
15958;SDS011;8078;47.822;9.402;2024-01-11T02:44:02;92.57;;;21.80;;
15958;SDS011;8078;47.822;9.402;2024-01-11T02:46:28;97.30;;;22.73;;
15958;SDS011;8078;47.822;9.402;2024-01-11T02:48:55;92.23;;;24.57;;
15958;SDS011;8078;47.822;9.402;2024-01-11T02:51:20;116.27;;;25.80;;
15958;SDS011;8078;47.822;9.402;2024-01-11T02:53:46;120.30;;;25.47;;
15958;SDS011;8078;47.822;9.402;2024-01-11T02:56:11;133.20;;;25.13;;
15958;SDS011;8078;47.822;9.402;2024-01-11T02:58:37;166.37;;;29.93;;
15958;SDS011;8078;47.822;9.402;2024-01-11T03:01:03;129.93;;;24.67;;
15958;SDS011;8078;47.822;9.402;2024-01-11T03:03:29;124.67;;;25.97;;
15958;SDS011;8078;47.822;9.402;2024-01-11T03:05:55;109.17;;;26.70;;
15958;SDS011;8078;47.822;9.402;2024-01-11T03:08:21;167.57;;;28.33;;
15958;SDS011;8078;47.822;9.402;2024-01-11T03:10:47;94.77;;;25.90;;
15958;SDS011;8078;47.822;9.402;2024-01-11T03:13:13;96.20;;;25.10;;
15958;SDS011;8078;47.822;9.402;2024-01-11T03:15:39;113.57;;;29.17;;
15958;SDS011;8078;47.822;9.402;2024-01-11T03:18:05;121.13;;;26.03;;
15958;SDS011;8078;47.822;9.402;2024-01-11T03:20:31;123.37;;;26.23;;
15958;SDS011;8078;47.822;9.402;2024-01-11T03:22:57;140.80;;;26.37;;
15958;SDS011;8078;47.822;9.402;2024-01-11T03:25:23;115.90;;;25.83;;
15958;SDS011;8078;47.822;9.402;2024-01-11T03:27:49;91.27;;;25.00;;
15958;SDS011;8078;47.822;9.402;2024-01-11T03:30:15;126.50;;;25.83;;
15958;SDS011;8078;47.822;9.402;2024-01-11T03:32:41;97.00;;;25.90;;
15958;SDS011;8078;47.822;9.402;2024-01-11T03:35:08;84.83;;;24.23;;
15958;SDS011;8078;47.822;9.402;2024-01-11T03:37:34;95.67;;;25.03;;
15958;SDS011;8078;47.822;9.402;2024-01-11T03:40:00;89.63;;;24.40;;
15958;SDS011;8078;47.822;9.402;2024-01-11T03:42:26;138.03;;;23.83;;
15958;SDS011;8078;47.822;9.402;2024-01-11T03:44:52;124.30;;;24.93;;
15958;SDS011;8078;47.822;9.402;2024-01-11T03:47:18;105.47;;;22.77;;
15958;SDS011;8078;47.822;9.402;2024-01-11T03:49:44;170.27;;;24.90;;
15958;SDS011;8078;47.822;9.402;2024-01-11T03:52:10;106.50;;;22.23;;
15958;SDS011;8078;47.822;9.402;2024-01-11T03:54:36;101.87;;;21.60;;
15958;SDS011;8078;47.822;9.402;2024-01-11T03:57:02;112.83;;;24.17;;
15958;SDS011;8078;47.822;9.402;2024-01-11T03:59:28;153.30;;;23.60;;
15958;SDS011;8078;47.822;9.402;2024-01-11T04:01:55;119.47;;;23.03;;
15958;SDS011;8078;47.822;9.402;2024-01-11T04:04:21;114.23;;;24.13;;
15958;SDS011;8078;47.822;9.402;2024-01-11T04:06:47;221.87;;;26.47;;
15958;SDS011;8078;47.822;9.402;2024-01-11T04:09:14;123.57;;;22.27;;
15958;SDS011;8078;47.822;9.402;2024-01-11T04:11:40;158.17;;;23.60;;
15958;SDS011;8078;47.822;9.402;2024-01-11T04:14:06;241.33;;;27.67;;
15958;SDS011;8078;47.822;9.402;2024-01-11T04:16:32;111.97;;;24.27;;
15958;SDS011;8078;47.822;9.402;2024-01-11T04:18:59;143.17;;;24.23;;
15958;SDS011;8078;47.822;9.402;2024-01-11T04:21:26;72.50;;;21.57;;
15958;SDS011;8078;47.822;9.402;2024-01-11T04:23:56;104.80;;;23.90;;
15958;SDS011;8078;47.822;9.402;2024-01-11T04:26:22;130.53;;;23.50;;
15958;SDS011;8078;47.822;9.402;2024-01-11T04:28:48;146.70;;;23.97;;
15958;SDS011;8078;47.822;9.402;2024-01-11T04:31:14;187.47;;;24.87;;
15958;SDS011;8078;47.822;9.402;2024-01-11T04:33:44;212.10;;;25.83;;
15958;SDS011;8078;47.822;9.402;2024-01-11T04:36:10;181.23;;;23.87;;
15958;SDS011;8078;47.822;9.402;2024-01-11T04:38:36;165.33;;;22.53;;
15958;SDS011;8078;47.822;9.402;2024-01-11T04:41:02;129.27;;;21.77;;
15958;SDS011;8078;47.822;9.402;2024-01-11T04:43:28;160.67;;;22.17;;
15958;SDS011;8078;47.822;9.402;2024-01-11T04:45:54;94.97;;;20.60;;
15958;SDS011;8078;47.822;9.402;2024-01-11T04:48:20;103.13;;;18.27;;
15958;SDS011;8078;47.822;9.402;2024-01-11T04:50:46;151.57;;;20.03;;
15958;SDS011;8078;47.822;9.402;2024-01-11T04:53:12;171.63;;;21.20;;
15958;SDS011;8078;47.822;9.402;2024-01-11T04:55:38;154.87;;;22.40;;
15958;SDS011;8078;47.822;9.402;2024-01-11T04:58:04;158.03;;;21.73;;
15958;SDS011;8078;47.822;9.402;2024-01-11T05:00:30;112.73;;;20.40;;
15958;SDS011;8078;47.822;9.402;2024-01-11T05:02:58;225.57;;;23.93;;
15958;SDS011;8078;47.822;9.402;2024-01-11T05:05:24;176.77;;;23.57;;
15958;SDS011;8078;47.822;9.402;2024-01-11T05:07:50;192.63;;;21.30;;
15958;SDS011;8078;47.822;9.402;2024-01-11T05:10:16;137.00;;;21.07;;
15958;SDS011;8078;47.822;9.402;2024-01-11T05:12:42;167.73;;;21.93;;
15958;SDS011;8078;47.822;9.402;2024-01-11T05:15:08;154.83;;;24.33;;
15958;SDS011;8078;47.822;9.402;2024-01-11T05:17:34;166.80;;;21.33;;
15958;SDS011;8078;47.822;9.402;2024-01-11T05:19:59;179.40;;;22.67;;
15958;SDS011;8078;47.822;9.402;2024-01-11T05:22:25;182.97;;;23.80;;
15958;SDS011;8078;47.822;9.402;2024-01-11T05:24:51;161.10;;;23.43;;
15958;SDS011;8078;47.822;9.402;2024-01-11T05:27:16;185.90;;;22.40;;
15958;SDS011;8078;47.822;9.402;2024-01-11T05:29:42;173.33;;;22.73;;
15958;SDS011;8078;47.822;9.402;2024-01-11T05:32:07;214.63;;;24.60;;
15958;SDS011;8078;47.822;9.402;2024-01-11T05:34:33;186.13;;;22.23;;
15958;SDS011;8078;47.822;9.402;2024-01-11T05:36:58;107.13;;;21.07;;
15958;SDS011;8078;47.822;9.402;2024-01-11T05:39:24;123.77;;;22.73;;
15958;SDS011;8078;47.822;9.402;2024-01-11T05:41:49;186.37;;;21.80;;
15958;SDS011;8078;47.822;9.402;2024-01-11T05:44:15;242.97;;;26.33;;
15958;SDS011;8078;47.822;9.402;2024-01-11T05:46:40;276.60;;;24.73;;
15958;SDS011;8078;47.822;9.402;2024-01-11T05:49:06;197.17;;;22.57;;
15958;SDS011;8078;47.822;9.402;2024-01-11T05:51:32;284.80;;;27.73;;
15958;SDS011;8078;47.822;9.402;2024-01-11T05:53:58;155.93;;;23.43;;
15958;SDS011;8078;47.822;9.402;2024-01-11T05:56:23;255.10;;;26.00;;
15958;SDS011;8078;47.822;9.402;2024-01-11T05:58:49;184.03;;;23.17;;
15958;SDS011;8078;47.822;9.402;2024-01-11T06:01:14;223.00;;;25.27;;
15958;SDS011;8078;47.822;9.402;2024-01-11T06:03:40;151.10;;;21.40;;
15958;SDS011;8078;47.822;9.402;2024-01-11T06:06:06;92.20;;;20.70;;
15958;SDS011;8078;47.822;9.402;2024-01-11T06:08:32;199.07;;;22.00;;
15958;SDS011;8078;47.822;9.402;2024-01-11T06:10:57;209.83;;;23.40;;
15958;SDS011;8078;47.822;9.402;2024-01-11T06:13:23;216.03;;;23.63;;
15958;SDS011;8078;47.822;9.402;2024-01-11T06:15:49;178.97;;;21.20;;
15958;SDS011;8078;47.822;9.402;2024-01-11T06:18:15;142.60;;;21.60;;
15958;SDS011;8078;47.822;9.402;2024-01-11T06:20:41;193.20;;;23.13;;
15958;SDS011;8078;47.822;9.402;2024-01-11T06:23:06;157.67;;;22.90;;
15958;SDS011;8078;47.822;9.402;2024-01-11T06:25:32;240.87;;;23.80;;
15958;SDS011;8078;47.822;9.402;2024-01-11T06:27:58;331.13;;;29.53;;
15958;SDS011;8078;47.822;9.402;2024-01-11T06:30:24;229.70;;;22.50;;
15958;SDS011;8078;47.822;9.402;2024-01-11T06:32:50;177.97;;;22.73;;
15958;SDS011;8078;47.822;9.402;2024-01-11T06:35:15;257.43;;;24.00;;
15958;SDS011;8078;47.822;9.402;2024-01-11T06:37:41;188.37;;;22.57;;
15958;SDS011;8078;47.822;9.402;2024-01-11T06:40:06;160.90;;;23.43;;
15958;SDS011;8078;47.822;9.402;2024-01-11T06:42:33;226.97;;;23.93;;
15958;SDS011;8078;47.822;9.402;2024-01-11T06:44:59;212.40;;;22.03;;
15958;SDS011;8078;47.822;9.402;2024-01-11T06:47:25;167.83;;;21.13;;
15958;SDS011;8078;47.822;9.402;2024-01-11T06:49:50;222.37;;;24.00;;
15958;SDS011;8078;47.822;9.402;2024-01-11T06:52:16;124.53;;;20.17;;
15958;SDS011;8078;47.822;9.402;2024-01-11T06:54:41;114.77;;;20.03;;
15958;SDS011;8078;47.822;9.402;2024-01-11T06:57:07;128.27;;;18.27;;
15958;SDS011;8078;47.822;9.402;2024-01-11T06:59:33;131.40;;;19.73;;
15958;SDS011;8078;47.822;9.402;2024-01-11T07:01:58;149.10;;;20.83;;
15958;SDS011;8078;47.822;9.402;2024-01-11T07:04:24;109.03;;;19.50;;
15958;SDS011;8078;47.822;9.402;2024-01-11T07:06:49;116.33;;;20.90;;
15958;SDS011;8078;47.822;9.402;2024-01-11T07:09:15;70.10;;;19.23;;
15958;SDS011;8078;47.822;9.402;2024-01-11T07:11:42;109.40;;;22.20;;
15958;SDS011;8078;47.822;9.402;2024-01-11T07:14:08;87.40;;;19.70;;
15958;SDS011;8078;47.822;9.402;2024-01-11T07:16:33;139.47;;;23.67;;
15958;SDS011;8078;47.822;9.402;2024-01-11T07:18:59;173.97;;;24.13;;
15958;SDS011;8078;47.822;9.402;2024-01-11T07:21:24;173.23;;;23.33;;
15958;SDS011;8078;47.822;9.402;2024-01-11T07:23:55;72.83;;;19.83;;
15958;SDS011;8078;47.822;9.402;2024-01-11T07:26:22;57.07;;;19.03;;
15958;SDS011;8078;47.822;9.402;2024-01-11T07:28:48;164.70;;;24.13;;
15958;SDS011;8078;47.822;9.402;2024-01-11T07:31:14;172.27;;;22.63;;
15958;SDS011;8078;47.822;9.402;2024-01-11T07:33:39;96.27;;;20.07;;
15958;SDS011;8078;47.822;9.402;2024-01-11T07:36:05;165.30;;;20.67;;
15958;SDS011;8078;47.822;9.402;2024-01-11T07:38:32;77.30;;;20.27;;
15958;SDS011;8078;47.822;9.402;2024-01-11T07:40:58;128.73;;;20.67;;
15958;SDS011;8078;47.822;9.402;2024-01-11T07:43:23;151.67;;;20.60;;
15958;SDS011;8078;47.822;9.402;2024-01-11T07:45:50;90.23;;;17.37;;
15958;SDS011;8078;47.822;9.402;2024-01-11T07:48:16;108.37;;;19.33;;
15958;SDS011;8078;47.822;9.402;2024-01-11T07:50:42;98.13;;;18.40;;
15958;SDS011;8078;47.822;9.402;2024-01-11T07:53:07;156.73;;;19.97;;
15958;SDS011;8078;47.822;9.402;2024-01-11T07:55:33;172.93;;;20.17;;
15958;SDS011;8078;47.822;9.402;2024-01-11T07:57:58;124.67;;;18.80;;
15958;SDS011;8078;47.822;9.402;2024-01-11T08:00:24;87.03;;;17.83;;
15958;SDS011;8078;47.822;9.402;2024-01-11T08:02:50;98.57;;;18.43;;
15958;SDS011;8078;47.822;9.402;2024-01-11T08:05:15;125.30;;;19.20;;
15958;SDS011;8078;47.822;9.402;2024-01-11T08:07:41;65.67;;;16.90;;
15958;SDS011;8078;47.822;9.402;2024-01-11T08:10:07;70.60;;;15.77;;
15958;SDS011;8078;47.822;9.402;2024-01-11T08:12:34;101.30;;;17.73;;
15958;SDS011;8078;47.822;9.402;2024-01-11T08:15:00;83.67;;;15.60;;
15958;SDS011;8078;47.822;9.402;2024-01-11T08:17:26;114.87;;;15.80;;
15958;SDS011;8078;47.822;9.402;2024-01-11T08:19:51;110.73;;;17.30;;
15958;SDS011;8078;47.822;9.402;2024-01-11T08:22:17;126.70;;;17.93;;
15958;SDS011;8078;47.822;9.402;2024-01-11T08:24:42;121.70;;;14.20;;
15958;SDS011;8078;47.822;9.402;2024-01-11T08:27:08;121.43;;;17.17;;
15958;SDS011;8078;47.822;9.402;2024-01-11T08:29:34;117.70;;;16.50;;
15958;SDS011;8078;47.822;9.402;2024-01-11T08:31:59;86.73;;;13.17;;
15958;SDS011;8078;47.822;9.402;2024-01-11T08:34:29;108.87;;;15.07;;
15958;SDS011;8078;47.822;9.402;2024-01-11T08:36:54;114.73;;;16.90;;
15958;SDS011;8078;47.822;9.402;2024-01-11T08:39:20;141.87;;;17.17;;
15958;SDS011;8078;47.822;9.402;2024-01-11T08:41:46;113.17;;;18.97;;
15958;SDS011;8078;47.822;9.402;2024-01-11T08:44:12;96.40;;;18.00;;
15958;SDS011;8078;47.822;9.402;2024-01-11T08:46:38;157.73;;;17.60;;
15958;SDS011;8078;47.822;9.402;2024-01-11T08:49:04;109.23;;;17.73;;
15958;SDS011;8078;47.822;9.402;2024-01-11T08:51:29;142.17;;;18.37;;
15958;SDS011;8078;47.822;9.402;2024-01-11T08:53:55;121.77;;;16.13;;
15958;SDS011;8078;47.822;9.402;2024-01-11T08:56:21;119.13;;;14.37;;
15958;SDS011;8078;47.822;9.402;2024-01-11T08:58:47;107.53;;;15.27;;
15958;SDS011;8078;47.822;9.402;2024-01-11T09:01:15;85.03;;;14.53;;
15958;SDS011;8078;47.822;9.402;2024-01-11T09:03:41;103.37;;;17.53;;
15958;SDS011;8078;47.822;9.402;2024-01-11T09:06:07;113.03;;;17.43;;
15958;SDS011;8078;47.822;9.402;2024-01-11T09:08:32;179.10;;;19.40;;
15958;SDS011;8078;47.822;9.402;2024-01-11T09:10:59;143.23;;;17.83;;
15958;SDS011;8078;47.822;9.402;2024-01-11T09:13:25;149.57;;;18.53;;
15958;SDS011;8078;47.822;9.402;2024-01-11T09:15:52;146.27;;;19.27;;
15958;SDS011;8078;47.822;9.402;2024-01-11T09:18:18;159.83;;;19.43;;
15958;SDS011;8078;47.822;9.402;2024-01-11T09:20:44;125.87;;;16.27;;
15958;SDS011;8078;47.822;9.402;2024-01-11T09:23:12;101.70;;;15.83;;
15958;SDS011;8078;47.822;9.402;2024-01-11T09:25:37;139.53;;;16.80;;
15958;SDS011;8078;47.822;9.402;2024-01-11T09:28:03;102.37;;;15.43;;
15958;SDS011;8078;47.822;9.402;2024-01-11T09:30:29;140.80;;;17.73;;
15958;SDS011;8078;47.822;9.402;2024-01-11T09:32:55;112.80;;;16.00;;
15958;SDS011;8078;47.822;9.402;2024-01-11T09:35:23;95.93;;;15.97;;
15958;SDS011;8078;47.822;9.402;2024-01-11T09:37:49;90.83;;;15.17;;
15958;SDS011;8078;47.822;9.402;2024-01-11T09:40:15;54.83;;;14.23;;
15958;SDS011;8078;47.822;9.402;2024-01-11T09:42:42;142.77;;;15.23;;
15958;SDS011;8078;47.822;9.402;2024-01-11T09:45:09;92.10;;;15.20;;
15958;SDS011;8078;47.822;9.402;2024-01-11T09:47:37;133.40;;;18.43;;
15958;SDS011;8078;47.822;9.402;2024-01-11T09:50:05;76.57;;;17.20;;
15958;SDS011;8078;47.822;9.402;2024-01-11T09:52:31;80.07;;;17.57;;
15958;SDS011;8078;47.822;9.402;2024-01-11T09:55:00;138.23;;;16.00;;
15958;SDS011;8078;47.822;9.402;2024-01-11T09:57:30;143.53;;;19.70;;
15958;SDS011;8078;47.822;9.402;2024-01-11T09:59:57;126.33;;;15.00;;
15958;SDS011;8078;47.822;9.402;2024-01-11T10:02:24;88.73;;;13.10;;
15958;SDS011;8078;47.822;9.402;2024-01-11T10:04:51;107.03;;;15.10;;
15958;SDS011;8078;47.822;9.402;2024-01-11T10:07:18;76.17;;;11.73;;
15958;SDS011;8078;47.822;9.402;2024-01-11T10:09:47;72.07;;;12.47;;
15958;SDS011;8078;47.822;9.402;2024-01-11T10:12:13;77.27;;;14.37;;
15958;SDS011;8078;47.822;9.402;2024-01-11T10:14:39;114.97;;;14.17;;
15958;SDS011;8078;47.822;9.402;2024-01-11T10:17:05;61.57;;;10.77;;
15958;SDS011;8078;47.822;9.402;2024-01-11T10:19:31;89.20;;;13.03;;
15958;SDS011;8078;47.822;9.402;2024-01-11T10:21:57;118.60;;;14.13;;
15958;SDS011;8078;47.822;9.402;2024-01-11T10:24:23;81.97;;;13.27;;
15958;SDS011;8078;47.822;9.402;2024-01-11T10:27:00;90.53;;;14.67;;
15958;SDS011;8078;47.822;9.402;2024-01-11T10:29:32;85.63;;;12.70;;
15958;SDS011;8078;47.822;9.402;2024-01-11T10:31:59;66.20;;;12.83;;
15958;SDS011;8078;47.822;9.402;2024-01-11T10:34:24;73.17;;;13.27;;
15958;SDS011;8078;47.822;9.402;2024-01-11T10:36:50;105.93;;;13.10;;
15958;SDS011;8078;47.822;9.402;2024-01-11T10:39:16;82.27;;;12.00;;
15958;SDS011;8078;47.822;9.402;2024-01-11T10:41:45;128.27;;;13.17;;
15958;SDS011;8078;47.822;9.402;2024-01-11T10:44:19;77.37;;;13.07;;
15958;SDS011;8078;47.822;9.402;2024-01-11T10:46:49;57.20;;;13.03;;
15958;SDS011;8078;47.822;9.402;2024-01-11T10:49:17;50.07;;;12.27;;
15958;SDS011;8078;47.822;9.402;2024-01-11T10:51:49;75.60;;;12.80;;
15958;SDS011;8078;47.822;9.402;2024-01-11T10:54:23;60.43;;;13.30;;
15958;SDS011;8078;47.822;9.402;2024-01-11T10:56:49;73.80;;;13.40;;
15958;SDS011;8078;47.822;9.402;2024-01-11T10:59:15;106.93;;;15.23;;
15958;SDS011;8078;47.822;9.402;2024-01-11T11:01:42;75.03;;;14.90;;
15958;SDS011;8078;47.822;9.402;2024-01-11T11:04:10;104.87;;;14.77;;
15958;SDS011;8078;47.822;9.402;2024-01-11T11:06:36;61.53;;;13.93;;
15958;SDS011;8078;47.822;9.402;2024-01-11T11:09:03;67.40;;;12.43;;
15958;SDS011;8078;47.822;9.402;2024-01-11T11:11:30;98.90;;;14.17;;
15958;SDS011;8078;47.822;9.402;2024-01-11T11:14:00;36.20;;;13.17;;
15958;SDS011;8078;47.822;9.402;2024-01-11T11:16:26;51.80;;;12.27;;
15958;SDS011;8078;47.822;9.402;2024-01-11T11:18:53;39.10;;;12.93;;
15958;SDS011;8078;47.822;9.402;2024-01-11T11:21:19;38.67;;;12.67;;
15958;SDS011;8078;47.822;9.402;2024-01-11T11:23:46;42.97;;;11.80;;
15958;SDS011;8078;47.822;9.402;2024-01-11T11:26:16;59.13;;;12.17;;
15958;SDS011;8078;47.822;9.402;2024-01-11T11:28:42;40.77;;;13.20;;
15958;SDS011;8078;47.822;9.402;2024-01-11T11:31:08;76.30;;;13.30;;
15958;SDS011;8078;47.822;9.402;2024-01-11T11:33:36;97.67;;;14.20;;
15958;SDS011;8078;47.822;9.402;2024-01-11T11:36:02;80.10;;;12.47;;
15958;SDS011;8078;47.822;9.402;2024-01-11T11:38:29;66.63;;;13.93;;
15958;SDS011;8078;47.822;9.402;2024-01-11T11:40:56;47.40;;;12.77;;
15958;SDS011;8078;47.822;9.402;2024-01-11T11:43:23;55.60;;;13.70;;
15958;SDS011;8078;47.822;9.402;2024-01-11T11:45:49;66.93;;;12.00;;
15958;SDS011;8078;47.822;9.402;2024-01-11T11:51:30;68.77;;;14.30;;
15958;SDS011;8078;47.822;9.402;2024-01-11T11:53:49;92.87;;;13.93;;
15958;SDS011;8078;47.822;9.402;2024-01-11T11:56:19;78.00;;;12.93;;
15958;SDS011;8078;47.822;9.402;2024-01-11T11:58:47;69.63;;;13.43;;
15958;SDS011;8078;47.822;9.402;2024-01-11T12:01:14;97.43;;;13.73;;
15958;SDS011;8078;47.822;9.402;2024-01-11T12:03:42;65.00;;;13.93;;
15958;SDS011;8078;47.822;9.402;2024-01-11T12:06:13;76.30;;;12.90;;
15958;SDS011;8078;47.822;9.402;2024-01-11T12:08:41;106.20;;;15.10;;
15958;SDS011;8078;47.822;9.402;2024-01-11T12:11:08;92.60;;;13.90;;
15958;SDS011;8078;47.822;9.402;2024-01-11T12:13:33;70.33;;;14.07;;
15958;SDS011;8078;47.822;9.402;2024-01-11T12:16:00;57.47;;;14.63;;
15958;SDS011;8078;47.822;9.402;2024-01-11T12:18:26;104.90;;;16.07;;
15958;SDS011;8078;47.822;9.402;2024-01-11T12:20:51;77.97;;;12.10;;
15958;SDS011;8078;47.822;9.402;2024-01-11T12:23:18;83.83;;;13.57;;
15958;SDS011;8078;47.822;9.402;2024-01-11T12:25:44;108.57;;;13.13;;
15958;SDS011;8078;47.822;9.402;2024-01-11T12:28:10;129.60;;;15.03;;
15958;SDS011;8078;47.822;9.402;2024-01-11T12:30:36;68.80;;;14.30;;
15958;SDS011;8078;47.822;9.402;2024-01-11T12:33:02;90.40;;;14.53;;
15958;SDS011;8078;47.822;9.402;2024-01-11T12:35:30;92.30;;;14.03;;
15958;SDS011;8078;47.822;9.402;2024-01-11T12:37:59;68.23;;;11.93;;
15958;SDS011;8078;47.822;9.402;2024-01-11T12:40:34;62.03;;;13.03;;
15958;SDS011;8078;47.822;9.402;2024-01-11T12:43:00;67.20;;;13.53;;
15958;SDS011;8078;47.822;9.402;2024-01-11T12:45:26;91.53;;;14.40;;
15958;SDS011;8078;47.822;9.402;2024-01-11T12:47:52;64.87;;;13.27;;
15958;SDS011;8078;47.822;9.402;2024-01-11T12:50:19;72.40;;;15.67;;
15958;SDS011;8078;47.822;9.402;2024-01-11T12:52:45;109.93;;;17.00;;
15958;SDS011;8078;47.822;9.402;2024-01-11T12:55:18;95.67;;;17.77;;
15958;SDS011;8078;47.822;9.402;2024-01-11T12:57:44;78.87;;;17.77;;
15958;SDS011;8078;47.822;9.402;2024-01-11T13:00:10;100.07;;;18.33;;
15958;SDS011;8078;47.822;9.402;2024-01-11T13:02:37;85.37;;;17.93;;
15958;SDS011;8078;47.822;9.402;2024-01-11T13:05:03;98.80;;;18.20;;
15958;SDS011;8078;47.822;9.402;2024-01-11T13:07:30;120.27;;;18.17;;
15958;SDS011;8078;47.822;9.402;2024-01-11T13:09:55;88.57;;;18.70;;
15958;SDS011;8078;47.822;9.402;2024-01-11T13:12:21;115.07;;;18.30;;
15958;SDS011;8078;47.822;9.402;2024-01-11T13:14:47;164.13;;;18.83;;
15958;SDS011;8078;47.822;9.402;2024-01-11T13:17:13;96.77;;;18.27;;
15958;SDS011;8078;47.822;9.402;2024-01-11T13:19:39;101.60;;;18.50;;
15958;SDS011;8078;47.822;9.402;2024-01-11T13:22:04;98.63;;;17.97;;
15958;SDS011;8078;47.822;9.402;2024-01-11T13:24:30;151.80;;;20.17;;
15958;SDS011;8078;47.822;9.402;2024-01-11T13:26:56;117.57;;;20.00;;
15958;SDS011;8078;47.822;9.402;2024-01-11T13:29:22;99.23;;;18.17;;
15958;SDS011;8078;47.822;9.402;2024-01-11T13:31:47;68.77;;;17.83;;
15958;SDS011;8078;47.822;9.402;2024-01-11T13:34:13;67.60;;;19.13;;
15958;SDS011;8078;47.822;9.402;2024-01-11T13:36:38;47.60;;;18.67;;
15958;SDS011;8078;47.822;9.402;2024-01-11T13:39:04;65.90;;;18.73;;
15958;SDS011;8078;47.822;9.402;2024-01-11T13:41:33;65.63;;;19.93;;
15958;SDS011;8078;47.822;9.402;2024-01-11T13:43:58;49.40;;;17.60;;
15958;SDS011;8078;47.822;9.402;2024-01-11T13:46:24;114.57;;;18.40;;
15958;SDS011;8078;47.822;9.402;2024-01-11T13:48:49;133.60;;;20.17;;
15958;SDS011;8078;47.822;9.402;2024-01-11T13:51:15;83.67;;;19.73;;
15958;SDS011;8078;47.822;9.402;2024-01-11T13:53:41;68.27;;;18.60;;
15958;SDS011;8078;47.822;9.402;2024-01-11T13:56:06;94.33;;;18.30;;
15958;SDS011;8078;47.822;9.402;2024-01-11T13:58:32;125.97;;;19.97;;
15958;SDS011;8078;47.822;9.402;2024-01-11T14:00:57;79.67;;;17.53;;
15958;SDS011;8078;47.822;9.402;2024-01-11T14:03:23;97.93;;;17.83;;
15958;SDS011;8078;47.822;9.402;2024-01-11T14:05:49;79.53;;;17.87;;
15958;SDS011;8078;47.822;9.402;2024-01-11T14:08:15;98.33;;;18.20;;
15958;SDS011;8078;47.822;9.402;2024-01-11T14:10:40;125.53;;;19.00;;
15958;SDS011;8078;47.822;9.402;2024-01-11T14:13:06;85.40;;;18.73;;
15958;SDS011;8078;47.822;9.402;2024-01-11T14:15:32;81.87;;;18.83;;
15958;SDS011;8078;47.822;9.402;2024-01-11T14:17:57;95.27;;;20.27;;
15958;SDS011;8078;47.822;9.402;2024-01-11T14:20:23;114.60;;;19.53;;
15958;SDS011;8078;47.822;9.402;2024-01-11T14:22:49;106.30;;;20.00;;
15958;SDS011;8078;47.822;9.402;2024-01-11T14:25:18;134.43;;;21.13;;